Startpagina
METAR-TAF:

METAR-TAF

Vliegvelden :

Internationale Luchthaven Baghdad

Bagdad, Irak

breedte: 33-15-45N, lengte: 44-14-04E, hoogte: 35 m

Actueel weer

Dit bericht is 37 minuten geleden gemaakt, om 13:00 UTC
Wind 5 kt uit het zuidzuidoosten, variërend tussen het oostzuidoosten en het zuidzuidwesten
Temperatuur 22°C
Vochtigheid 20%
Druk 1020 hPa
Zicht: 4600 m

METAR: ORBI 221300Z 15005KT 120V210 9999 4600 NSC 22/M02 Q1020 NOSIG

Tijdstip: 16:37 (13:37 UTC)

Verwachting

Dit bericht is 2 uur en het 37 minuten geleden gemaakt, om 11:00 UTC
Verwachting geldig van 22 om 12 UTC tot 23 om 12 UTC
Wind 3 kt uit variabele richting
Zicht: 8000 m
Verspreide wolken op 4000 ft

TAF: ORBI 221100Z 2212/2312 VRB03KT 8000 SCT040

Waarnemingen en weersverwachtingen van meer dan 4000 vliegvelden (METAR en TAF).

De beschikbare stations zijn de gele en rode punten op de kaart.

Ga met uw muis naar het station om de naam te zien.

Klik dan om waarnemingen en weersverwachtingen te zien.

kaart wijzigen: klik op de groene knoppen met een zwart kruis om in te zoomen, op de groene knop met een streepje om uit te zoomen of op de groene pijlen voor aangrenzende kaarten.


METAR-TAF: